Ayers, Illinois
Current Conditions -  °F | °C
As of 5:55 AM on Saturday 01 Nov 2014 (Local Time) from K3LF Reporting Station
Clear Clear  
Wind Chill: 18°   Ceiling: Unl
Heat Index: 28°   Visibility: 10mi
Dew Point: 21°   Wind: 12mph
Humidity: 76%   Direction: 340°NNW
Pressure: 30.4"   Gusts: NA
Location:  38.895°N, 89.397°W
Report Text: K3LF 011055Z AUTO 34010KT 10SM CLR M02/M06 A3040 RMK AO2 T10241061
Loading
Personal Weather Stations






























Interactive Weather Map
Tropical Storm Tracking
New forecast layout! Learn more

10-Day Weather Forecast

Advertisements
Track Severe Weather on mobile